CZ-0059 weather

Private ULM Chabeřice
Chabeřice, Central Bohemian Region, Czech Republic

Public forecast

Using degrees Celsius for public forecast. Weather courtesy of forecast.io.

Closest aviation weather report (METAR) to Private ULM Chabeřice

Closest report is Čáslav Air Base, 16.9 nm (31.2 km) NE. Retrieved 2020/08/04 16:30 UTC (26 minutes ago):

LKCV 041630Z 31008KT 9999 -RA SCT039 OVC045 15/13 Q1015 NOSIG RMK BLU BLU

Closest aviation forecast (TAF) to Private ULM Chabeřice

Closest forecast is Čáslav Air Base, 16.9 nm (31.2 km) NE. Retrieved 2020/08/04 12:00 UTC (5 hours ago):

TAF LKCV 041100Z 0412/0512 30010KT 9999 BKN035 TEMPO 0412/0420 6000 RA BKN015 PROB30 TEMPO 0412/0416 33014G24KT 4000 RA BKN008 BECMG 0419/0422 VRB02KT PROB40 TEMPO 0502/0505 4000 BR BKN008 BECMG 0510/0512 03010KT CAVOK